createdAt,value
2017-10-05T00:01:18.038Z,12.80
2017-10-05T00:03:45.824Z,12.80
2017-10-05T00:06:13.399Z,12.80
2017-10-05T00:08:40.954Z,12.80
2017-10-05T00:11:08.490Z,12.90
2017-10-05T00:13:36.057Z,12.90
2017-10-05T00:16:04.436Z,12.90
2017-10-05T00:18:32.295Z,12.90
2017-10-05T00:21:00.190Z,12.90
2017-10-05T00:23:27.889Z,12.90
2017-10-05T00:25:55.573Z,12.90
2017-10-05T00:28:23.117Z,12.90
2017-10-05T00:30:50.924Z,13.00
2017-10-05T00:33:29.485Z,13.00
2017-10-05T00:35:57.973Z,13.00
2017-10-05T00:38:25.695Z,13.00
2017-10-05T00:40:54.015Z,13.00
2017-10-05T00:43:22.625Z,13.00
2017-10-05T00:45:50.451Z,13.00
2017-10-05T00:48:18.251Z,13.00
2017-10-05T00:50:46.571Z,13.00
2017-10-05T00:53:25.009Z,13.00
2017-10-05T00:55:52.563Z,13.00
2017-10-05T00:58:21.509Z,13.00
2017-10-05T01:00:49.850Z,13.00
2017-10-05T01:03:20.386Z,13.00
2017-10-05T01:05:48.065Z,13.00
2017-10-05T01:08:15.793Z,12.90
2017-10-05T01:10:44.199Z,12.90
2017-10-05T01:13:12.153Z,12.90
2017-10-05T01:15:40.060Z,12.90
2017-10-05T01:18:08.589Z,12.90
2017-10-05T01:20:37.356Z,12.80
2017-10-05T01:23:05.347Z,12.90
2017-10-05T01:25:33.730Z,12.90
2017-10-05T01:28:01.361Z,12.80
2017-10-05T01:30:29.933Z,12.90
2017-10-05T01:32:57.628Z,12.90
2017-10-05T01:35:25.168Z,12.90
2017-10-05T01:37:52.760Z,12.90
2017-10-05T01:40:21.409Z,12.90
2017-10-05T01:42:49.948Z,13.00
2017-10-05T01:45:17.612Z,13.00
2017-10-05T01:47:45.168Z,13.00
2017-10-05T01:50:12.694Z,12.90
2017-10-05T01:52:40.390Z,13.00
2017-10-05T01:55:10.365Z,13.00
2017-10-05T01:57:38.721Z,12.90
2017-10-05T02:00:07.097Z,13.00
2017-10-05T02:02:35.608Z,13.00
2017-10-05T02:05:03.305Z,12.90
2017-10-05T02:07:30.885Z,13.00
2017-10-05T02:09:58.429Z,13.00
2017-10-05T02:12:25.970Z,13.00
2017-10-05T02:14:53.637Z,13.00
2017-10-05T02:17:27.819Z,13.00
2017-10-05T02:20:05.277Z,13.10
2017-10-05T02:22:34.108Z,13.10
2017-10-05T02:25:01.624Z,13.10
2017-10-05T02:27:29.321Z,13.00
2017-10-05T02:29:57.013Z,13.00
2017-10-05T02:32:25.391Z,13.10
2017-10-05T02:34:52.914Z,13.10
2017-10-05T02:37:20.453Z,13.00
2017-10-05T02:39:48.854Z,13.10
2017-10-05T02:42:16.954Z,13.00
2017-10-05T02:44:44.788Z,13.10
2017-10-05T02:47:14.078Z,13.00
2017-10-05T02:49:42.065Z,13.00
2017-10-05T02:52:10.812Z,13.00
2017-10-05T02:54:39.006Z,13.00
2017-10-05T02:57:06.642Z,13.00
2017-10-05T02:59:34.456Z,13.00
2017-10-05T03:02:02.108Z,13.00
2017-10-05T03:04:30.391Z,13.00
2017-10-05T03:07:09.852Z,13.00
2017-10-05T03:09:38.329Z,13.00
2017-10-05T03:12:06.019Z,13.00
2017-10-05T03:14:34.389Z,13.00
2017-10-05T03:17:01.922Z,12.90
2017-10-05T03:19:29.657Z,12.90
2017-10-05T03:21:58.065Z,13.00
2017-10-05T03:24:25.606Z,12.90
2017-10-05T03:26:53.310Z,13.00
2017-10-05T03:29:21.136Z,13.00
2017-10-05T03:31:48.966Z,12.90
2017-10-05T03:34:16.726Z,12.90
2017-10-05T03:36:45.243Z,12.90
2017-10-05T03:39:12.797Z,12.90
2017-10-05T03:41:41.412Z,12.90
2017-10-05T03:44:10.929Z,12.90
2017-10-05T03:46:38.598Z,12.90
2017-10-05T03:49:06.137Z,12.90
2017-10-05T03:51:34.562Z,12.90
2017-10-05T03:54:02.347Z,12.90
2017-10-05T03:56:30.925Z,12.90
2017-10-05T03:58:59.272Z,12.80
2017-10-05T04:01:27.171Z,12.90
2017-10-05T04:03:55.768Z,12.90
2017-10-05T04:06:23.409Z,12.90
2017-10-05T04:08:51.971Z,12.80
2017-10-05T04:11:19.545Z,12.80
2017-10-05T04:13:47.204Z,12.80
2017-10-05T04:16:15.610Z,12.90
2017-10-05T04:18:43.348Z,12.90
2017-10-05T04:21:11.099Z,12.90
2017-10-05T04:23:38.698Z,12.90
2017-10-05T04:26:06.645Z,12.90
2017-10-05T04:28:34.223Z,12.90
2017-10-05T04:31:02.013Z,12.90
2017-10-05T04:33:29.732Z,12.90
2017-10-05T04:35:58.178Z,12.90
2017-10-05T04:38:25.798Z,12.90
2017-10-05T04:40:54.812Z,12.80
2017-10-05T04:43:23.189Z,12.80
2017-10-05T04:45:51.765Z,12.80
2017-10-05T04:48:19.537Z,12.70
2017-10-05T04:50:47.050Z,12.70
2017-10-05T04:53:14.749Z,12.60
2017-10-05T04:55:42.372Z,12.50
2017-10-05T04:58:09.927Z,12.40
2017-10-05T05:00:37.725Z,12.30
2017-10-05T05:03:06.668Z,12.20
2017-10-05T05:05:34.269Z,12.10
2017-10-05T05:08:06.521Z,12.00
2017-10-05T05:10:34.513Z,12.00
2017-10-05T05:13:02.135Z,12.00
2017-10-05T05:15:30.085Z,12.00
2017-10-05T05:17:57.646Z,12.00
2017-10-05T05:20:25.945Z,12.00
2017-10-05T05:22:54.909Z,12.10
2017-10-05T05:25:23.686Z,12.10
2017-10-05T05:27:51.210Z,12.10
2017-10-05T05:30:18.734Z,12.20
2017-10-05T05:32:47.062Z,12.10
2017-10-05T05:35:14.566Z,12.10
2017-10-05T05:37:42.076Z,12.10
2017-10-05T05:40:10.342Z,12.10
2017-10-05T05:42:38.677Z,12.10
2017-10-05T05:45:06.197Z,12.10
2017-10-05T05:47:33.709Z,12.10
2017-10-05T05:50:02.531Z,12.20
2017-10-05T05:52:30.988Z,12.20
2017-10-05T05:54:59.258Z,12.20
2017-10-05T05:57:27.545Z,12.20
2017-10-05T05:59:55.320Z,12.20
2017-10-05T06:02:22.937Z,12.20
2017-10-05T06:04:50.851Z,12.10
2017-10-05T06:07:18.558Z,12.10
2017-10-05T06:09:46.599Z,12.10
2017-10-05T06:12:14.192Z,12.20
2017-10-05T06:14:42.529Z,12.20
2017-10-05T06:17:11.135Z,12.20
2017-10-05T06:19:39.927Z,12.30
2017-10-05T06:22:08.427Z,12.30
2017-10-05T06:24:36.245Z,12.20
2017-10-05T06:27:03.954Z,12.30
2017-10-05T06:29:31.617Z,12.30
2017-10-05T06:31:59.426Z,12.30
2017-10-05T06:34:27.142Z,12.30
2017-10-05T06:36:58.386Z,12.40
2017-10-05T06:39:28.181Z,12.40
2017-10-05T06:41:57.321Z,12.50
2017-10-05T06:44:24.932Z,12.50
2017-10-05T06:46:52.822Z,12.60
2017-10-05T06:49:23.085Z,12.60
2017-10-05T06:51:52.938Z,12.70
2017-10-05T06:54:22.701Z,12.70
2017-10-05T06:56:50.313Z,12.70
2017-10-05T06:59:18.842Z,12.80
2017-10-05T07:01:50.385Z,12.80
2017-10-05T07:04:24.145Z,12.80
2017-10-05T07:06:51.959Z,12.80
2017-10-05T07:09:23.636Z,12.90
2017-10-05T07:12:01.556Z,12.90
2017-10-05T07:14:30.232Z,12.90
2017-10-05T07:16:58.639Z,12.90
2017-10-05T07:19:26.621Z,12.90
2017-10-05T07:21:55.285Z,12.90
2017-10-05T07:24:23.067Z,12.90
2017-10-05T07:26:52.411Z,12.90
2017-10-05T07:29:20.189Z,12.90
2017-10-05T07:31:47.988Z,12.90
2017-10-05T07:34:20.856Z,12.90
2017-10-05T07:36:49.608Z,12.90
2017-10-05T07:39:21.369Z,12.90
2017-10-05T07:41:49.623Z,12.90
2017-10-05T07:44:18.058Z,12.80
2017-10-05T07:46:46.304Z,12.80
2017-10-05T07:49:13.994Z,12.80
2017-10-05T07:51:41.854Z,12.80
2017-10-05T07:54:11.413Z,12.90
2017-10-05T07:56:39.307Z,12.90
2017-10-05T07:59:08.747Z,12.90
2017-10-05T08:01:38.562Z,12.90
2017-10-05T08:04:07.299Z,13.00
2017-10-05T08:06:35.383Z,12.90
2017-10-05T08:09:04.355Z,13.00
2017-10-05T08:11:32.271Z,13.00
2017-10-05T08:14:06.897Z,13.10
2017-10-05T08:16:43.389Z,13.10
2017-10-05T08:19:20.746Z,13.10
2017-10-05T08:21:49.092Z,13.10
2017-10-05T08:24:20.840Z,13.10
2017-10-05T08:26:53.210Z,13.10
2017-10-05T08:29:21.630Z,13.10
2017-10-05T08:31:50.438Z,13.10
2017-10-05T08:34:19.332Z,13.10
2017-10-05T08:36:50.861Z,13.20
2017-10-05T08:39:18.577Z,13.30
2017-10-05T08:41:46.528Z,13.20
2017-10-05T08:44:20.788Z,13.30
2017-10-05T08:46:48.667Z,13.30
2017-10-05T08:49:18.019Z,13.40
2017-10-05T08:51:45.786Z,13.40
2017-10-05T08:54:13.562Z,13.50
2017-10-05T08:56:54.010Z,13.50
2017-10-05T08:59:26.088Z,13.40
2017-10-05T09:01:54.582Z,13.50
2017-10-05T09:04:33.114Z,13.60
2017-10-05T09:07:01.321Z,13.60
2017-10-05T09:09:29.648Z,13.60
2017-10-05T09:12:00.537Z,13.70
2017-10-05T09:14:37.020Z,13.80
2017-10-05T09:17:06.133Z,13.80
2017-10-05T09:19:37.494Z,13.80
2017-10-05T09:22:05.890Z,13.90
2017-10-05T09:24:35.382Z,13.90
2017-10-05T09:27:04.722Z,13.90
2017-10-05T09:29:32.568Z,13.90
2017-10-05T09:32:11.481Z,14.00
2017-10-05T09:34:43.459Z,14.00
2017-10-05T09:37:11.013Z,14.10
2017-10-05T09:39:38.707Z,14.10
2017-10-05T09:42:06.330Z,14.10
2017-10-05T09:44:34.932Z,14.30
2017-10-05T09:47:07.508Z,14.30
2017-10-05T09:49:36.666Z,14.30
2017-10-05T09:52:04.991Z,14.40
2017-10-05T09:54:33.719Z,14.40
2017-10-05T09:57:02.418Z,14.60
2017-10-05T09:59:30.648Z,14.50
2017-10-05T10:01:58.449Z,14.60
2017-10-05T10:04:26.260Z,14.60
2017-10-05T10:06:54.780Z,14.70
2017-10-05T10:09:22.633Z,14.70
2017-10-05T10:11:50.616Z,14.70
2017-10-05T10:14:20.466Z,14.80
2017-10-05T10:16:48.524Z,14.70
2017-10-05T10:19:17.532Z,14.40
2017-10-05T10:21:48.584Z,14.30
2017-10-05T10:24:44.456Z,14.00
2017-10-05T10:27:27.259Z,14.00
2017-10-05T10:30:02.304Z,14.10
2017-10-05T10:32:30.560Z,14.10
2017-10-05T10:35:05.863Z,14.20
2017-10-05T10:37:33.997Z,14.20
2017-10-05T10:40:14.443Z,14.30
2017-10-05T10:42:49.249Z,14.30
2017-10-05T10:45:42.526Z,14.40
2017-10-05T10:51:14.642Z,14.60
2017-10-05T10:53:49.930Z,14.60
2017-10-05T10:56:19.321Z,14.70
2017-10-05T10:58:47.436Z,14.70
2017-10-05T11:01:29.488Z,14.60
2017-10-05T11:04:10.686Z,14.80
2017-10-05T11:09:24.484Z,15.30
2017-10-05T11:11:53.227Z,15.30
2017-10-05T11:14:21.844Z,15.50
2017-10-05T11:17:11.272Z,15.80
2017-10-05T11:19:38.840Z,15.60
2017-10-05T11:22:09.274Z,15.50
2017-10-05T11:24:37.748Z,15.30
2017-10-05T11:27:05.828Z,15.30
2017-10-05T11:29:34.921Z,15.30
2017-10-05T11:32:08.079Z,15.40
2017-10-05T11:34:40.148Z,15.50
2017-10-05T11:37:15.576Z,15.40
2017-10-05T11:39:43.321Z,15.50
2017-10-05T11:42:13.508Z,15.50
2017-10-05T11:44:44.704Z,15.40
2017-10-05T11:47:13.374Z,15.40
2017-10-05T11:49:42.377Z,15.60
2017-10-05T11:52:13.728Z,15.90
2017-10-05T11:54:42.622Z,16.10
2017-10-05T11:57:21.893Z,16.00
2017-10-05T11:59:49.553Z,16.00
2017-10-05T12:02:22.036Z,15.80
2017-10-05T12:04:51.002Z,16.00
2017-10-05T12:07:20.269Z,15.90
2017-10-05T12:09:50.044Z,16.00
2017-10-05T12:12:18.251Z,16.20
2017-10-05T12:15:02.896Z,16.10
2017-10-05T12:17:30.844Z,16.40
2017-10-05T12:19:58.639Z,16.60
2017-10-05T12:22:30.855Z,16.50
2017-10-05T12:24:59.287Z,16.60
2017-10-05T12:27:29.284Z,16.60
2017-10-05T12:29:57.228Z,16.60
2017-10-05T12:32:26.380Z,16.20
2017-10-05T12:34:55.517Z,16.10
2017-10-05T12:37:38.167Z,16.10
2017-10-05T12:40:17.382Z,16.40
2017-10-05T12:42:47.625Z,16.70
2017-10-05T12:45:15.949Z,16.70
2017-10-05T12:47:51.904Z,16.90
2017-10-05T12:50:23.894Z,16.80
2017-10-05T12:56:03.145Z,17.10
2017-10-05T12:58:31.336Z,17.40
2017-10-05T13:00:59.177Z,17.20
2017-10-05T13:03:31.494Z,17.20
2017-10-05T13:06:00.573Z,16.90
2017-10-05T13:20:18.283Z,14.50
2017-10-05T13:22:52.181Z,14.50
2017-10-05T13:25:19.906Z,14.60
2017-10-05T13:28:02.778Z,14.10
2017-10-05T13:30:31.649Z,13.80
2017-10-05T13:33:18.697Z,13.80
2017-10-05T13:38:46.527Z,14.30
2017-10-05T14:44:10.325Z,14.20
2017-10-05T14:46:48.488Z,14.10
2017-10-05T14:49:17.386Z,14.30
2017-10-05T14:51:45.086Z,14.30
2017-10-05T14:56:48.749Z,14.20
2017-10-05T14:59:19.786Z,14.30
2017-10-05T15:01:57.746Z,14.30
2017-10-05T15:18:09.778Z,14.40
2017-10-05T15:23:20.316Z,14.20
2017-10-05T15:25:48.366Z,14.30
2017-10-05T15:28:18.513Z,14.30
2017-10-05T15:33:52.350Z,14.30
2017-10-05T15:39:17.399Z,14.40
2017-10-05T15:44:46.031Z,14.30
2017-10-05T15:47:29.033Z,14.20
2017-10-05T15:50:41.804Z,14.20
2017-10-05T15:56:08.165Z,14.20
2017-10-05T16:02:01.914Z,14.10
2017-10-05T18:14:05.137Z,14.10
2017-10-05T19:08:28.320Z,11.00
2017-10-05T19:22:43.299Z,11.00
2017-10-05T19:28:04.515Z,11.00
2017-10-05T19:33:26.989Z,11.00
2017-10-05T19:39:27.884Z,11.00
2017-10-05T19:44:59.766Z,11.00
2017-10-05T19:47:43.915Z,10.90
2017-10-05T19:50:27.530Z,10.90
2017-10-05T19:53:06.687Z,10.90
2017-10-05T19:58:55.344Z,10.80
2017-10-05T20:01:27.116Z,10.70
2017-10-05T20:04:01.404Z,10.70
2017-10-05T20:06:29.736Z,10.60
2017-10-05T20:18:52.512Z,10.60
2017-10-05T20:27:28.469Z,10.50
2017-10-05T20:30:20.153Z,10.50
2017-10-05T20:35:53.674Z,10.40
2017-10-05T20:38:26.877Z,10.30
2017-10-05T20:40:56.614Z,10.30
2017-10-05T21:00:19.327Z,10.50
2017-10-05T21:02:47.208Z,10.60
2017-10-05T21:05:26.329Z,10.60
2017-10-05T21:10:49.137Z,10.60
2017-10-05T21:13:36.330Z,10.50
2017-10-05T21:19:17.508Z,10.40
2017-10-05T21:21:47.234Z,10.40
2017-10-05T21:24:19.049Z,10.40
2017-10-05T21:30:05.324Z,10.30
2017-10-05T21:32:46.381Z,10.20
2017-10-05T21:35:18.178Z,10.20
2017-10-05T21:40:43.970Z,10.00
2017-10-05T21:43:14.491Z,10.00
2017-10-05T21:49:10.360Z,9.90
2017-10-05T21:51:38.735Z,9.90
2017-10-05T21:57:18.924Z,9.80
2017-10-05T22:00:07.069Z,9.70
2017-10-05T22:02:36.094Z,9.70
2017-10-05T22:08:10.338Z,9.60
2017-10-05T22:10:38.079Z,9.50
2017-10-05T22:13:06.791Z,9.50
2017-10-05T22:18:54.928Z,9.40
2017-10-05T22:21:28.936Z,9.40
2017-10-05T22:27:16.159Z,9.40
2017-10-05T22:30:04.539Z,9.30
2017-10-05T22:33:54.650Z,9.20
2017-10-05T22:45:35.340Z,9.20
2017-10-05T23:10:58.113Z,9.20
2017-10-05T23:16:03.238Z,9.20
2017-10-05T23:18:38.907Z,9.40
2017-10-05T23:21:11.121Z,9.50
2017-10-05T23:23:58.662Z,9.50
2017-10-05T23:26:40.815Z,9.60
2017-10-05T23:29:10.051Z,9.70
2017-10-05T23:45:36.859Z,9.90
2017-10-05T23:51:29.890Z,9.90
2017-10-05T23:54:17.570Z,9.80
